sensor_id;sensor_type;location;lat;lon;timestamp;P1;durP1;ratioP1;P2;durP2;ratioP2
16524;SDS011;8375;33.594;-117.718;2022-09-29T00:01:21;13.40;;;5.40;;
16524;SDS011;8375;33.594;-117.718;2022-09-29T00:03:51;9.95;;;4.50;;
16524;SDS011;8375;33.594;-117.718;2022-09-29T00:06:20;11.98;;;5.53;;
16524;SDS011;8375;33.594;-117.718;2022-09-29T00:08:49;9.52;;;5.18;;
16524;SDS011;8375;33.594;-117.718;2022-09-29T00:11:17;13.02;;;5.75;;
16524;SDS011;8375;33.594;-117.718;2022-09-29T00:13:46;12.63;;;6.13;;
16524;SDS011;8375;33.594;-117.718;2022-09-29T00:16:15;13.90;;;6.05;;
16524;SDS011;8375;33.594;-117.718;2022-09-29T00:18:44;12.05;;;5.60;;
16524;SDS011;8375;33.594;-117.718;2022-09-29T00:21:15;14.48;;;6.55;;
16524;SDS011;8375;33.594;-117.718;2022-09-29T00:23:45;10.95;;;5.55;;
16524;SDS011;8375;33.594;-117.718;2022-09-29T00:26:15;11.25;;;5.30;;
16524;SDS011;8375;33.594;-117.718;2022-09-29T00:28:46;9.57;;;5.10;;
16524;SDS011;8375;33.594;-117.718;2022-09-29T00:31:17;11.18;;;5.18;;
16524;SDS011;8375;33.594;-117.718;2022-09-29T00:33:46;13.15;;;6.07;;
16524;SDS011;8375;33.594;-117.718;2022-09-29T00:36:18;11.45;;;5.68;;
16524;SDS011;8375;33.594;-117.718;2022-09-29T00:38:48;14.45;;;6.68;;
16524;SDS011;8375;33.594;-117.718;2022-09-29T00:41:19;16.55;;;6.55;;
16524;SDS011;8375;33.594;-117.718;2022-09-29T00:43:53;12.05;;;6.90;;
16524;SDS011;8375;33.594;-117.718;2022-09-29T00:46:26;13.25;;;5.68;;
16524;SDS011;8375;33.594;-117.718;2022-09-29T00:49:05;15.70;;;6.38;;
16524;SDS011;8375;33.594;-117.718;2022-09-29T00:51:41;15.70;;;7.20;;
16524;SDS011;8375;33.594;-117.718;2022-09-29T00:54:14;14.63;;;6.53;;
16524;SDS011;8375;33.594;-117.718;2022-09-29T00:56:44;16.77;;;6.80;;
16524;SDS011;8375;33.594;-117.718;2022-09-29T00:59:17;13.40;;;6.25;;
16524;SDS011;8375;33.594;-117.718;2022-09-29T01:01:52;17.15;;;7.97;;
16524;SDS011;8375;33.594;-117.718;2022-09-29T01:04:22;14.55;;;7.50;;
16524;SDS011;8375;33.594;-117.718;2022-09-29T01:06:53;14.52;;;7.07;;
16524;SDS011;8375;33.594;-117.718;2022-09-29T01:09:24;13.23;;;7.45;;
16524;SDS011;8375;33.594;-117.718;2022-09-29T01:11:57;15.13;;;7.57;;
16524;SDS011;8375;33.594;-117.718;2022-09-29T01:14:27;19.50;;;7.57;;
16524;SDS011;8375;33.594;-117.718;2022-09-29T01:16:58;18.27;;;8.10;;
16524;SDS011;8375;33.594;-117.718;2022-09-29T01:19:29;16.50;;;7.63;;
16524;SDS011;8375;33.594;-117.718;2022-09-29T01:22:13;14.88;;;7.95;;
16524;SDS011;8375;33.594;-117.718;2022-09-29T01:24:56;14.93;;;7.63;;
16524;SDS011;8375;33.594;-117.718;2022-09-29T01:27:46;13.77;;;7.25;;
16524;SDS011;8375;33.594;-117.718;2022-09-29T01:30:44;14.60;;;7.53;;
16524;SDS011;8375;33.594;-117.718;2022-09-29T01:33:33;16.52;;;8.70;;
16524;SDS011;8375;33.594;-117.718;2022-09-29T01:36:11;17.25;;;7.60;;
16524;SDS011;8375;33.594;-117.718;2022-09-29T01:38:52;15.63;;;7.40;;
16524;SDS011;8375;33.594;-117.718;2022-09-29T01:41:29;15.30;;;7.97;;
16524;SDS011;8375;33.594;-117.718;2022-09-29T01:44:10;15.55;;;7.32;;
16524;SDS011;8375;33.594;-117.718;2022-09-29T01:46:48;15.13;;;7.43;;
16524;SDS011;8375;33.594;-117.718;2022-09-29T01:49:19;17.48;;;8.25;;
16524;SDS011;8375;33.594;-117.718;2022-09-29T01:51:52;14.35;;;7.95;;
16524;SDS011;8375;33.594;-117.718;2022-09-29T01:54:26;14.05;;;7.25;;
16524;SDS011;8375;33.594;-117.718;2022-09-29T01:57:00;15.45;;;6.97;;
16524;SDS011;8375;33.594;-117.718;2022-09-29T01:59:35;16.40;;;7.35;;
16524;SDS011;8375;33.594;-117.718;2022-09-29T02:02:12;20.25;;;8.10;;
16524;SDS011;8375;33.594;-117.718;2022-09-29T02:04:44;16.50;;;7.68;;
16524;SDS011;8375;33.594;-117.718;2022-09-29T02:07:19;17.05;;;7.88;;
16524;SDS011;8375;33.594;-117.718;2022-09-29T02:09:52;14.85;;;7.13;;
16524;SDS011;8375;33.594;-117.718;2022-09-29T02:12:26;15.48;;;7.38;;
16524;SDS011;8375;33.594;-117.718;2022-09-29T02:14:59;16.83;;;7.65;;
16524;SDS011;8375;33.594;-117.718;2022-09-29T02:17:33;13.88;;;7.05;;
16524;SDS011;8375;33.594;-117.718;2022-09-29T02:20:05;16.45;;;6.97;;
16524;SDS011;8375;33.594;-117.718;2022-09-29T02:22:36;18.70;;;7.32;;
16524;SDS011;8375;33.594;-117.718;2022-09-29T02:25:07;16.55;;;7.55;;
16524;SDS011;8375;33.594;-117.718;2022-09-29T02:27:38;16.45;;;7.53;;
16524;SDS011;8375;33.594;-117.718;2022-09-29T02:30:07;16.90;;;7.32;;
16524;SDS011;8375;33.594;-117.718;2022-09-29T02:32:39;12.57;;;7.45;;
16524;SDS011;8375;33.594;-117.718;2022-09-29T02:35:08;19.98;;;7.97;;
16524;SDS011;8375;33.594;-117.718;2022-09-29T02:37:42;17.42;;;7.60;;
16524;SDS011;8375;33.594;-117.718;2022-09-29T02:40:23;16.88;;;8.30;;
16524;SDS011;8375;33.594;-117.718;2022-09-29T02:43:05;17.95;;;7.63;;
16524;SDS011;8375;33.594;-117.718;2022-09-29T02:45:45;18.55;;;8.02;;
16524;SDS011;8375;33.594;-117.718;2022-09-29T02:48:31;21.23;;;8.80;;
16524;SDS011;8375;33.594;-117.718;2022-09-29T02:51:15;21.05;;;8.65;;
16524;SDS011;8375;33.594;-117.718;2022-09-29T02:53:51;14.15;;;8.00;;
16524;SDS011;8375;33.594;-117.718;2022-09-29T02:56:32;17.50;;;8.50;;
16524;SDS011;8375;33.594;-117.718;2022-09-29T02:59:08;17.48;;;8.05;;
16524;SDS011;8375;33.594;-117.718;2022-09-29T03:01:46;17.88;;;7.45;;
16524;SDS011;8375;33.594;-117.718;2022-09-29T03:04:18;17.42;;;8.05;;
16524;SDS011;8375;33.594;-117.718;2022-09-29T03:06:48;20.23;;;8.05;;
16524;SDS011;8375;33.594;-117.718;2022-09-29T03:09:17;15.38;;;7.30;;
16524;SDS011;8375;33.594;-117.718;2022-09-29T03:11:47;15.45;;;8.15;;
16524;SDS011;8375;33.594;-117.718;2022-09-29T03:14:16;18.40;;;8.30;;
16524;SDS011;8375;33.594;-117.718;2022-09-29T03:16:45;17.05;;;7.70;;
16524;SDS011;8375;33.594;-117.718;2022-09-29T03:19:14;12.82;;;7.20;;
16524;SDS011;8375;33.594;-117.718;2022-09-29T03:21:44;19.27;;;7.82;;
16524;SDS011;8375;33.594;-117.718;2022-09-29T03:24:13;17.02;;;8.15;;
16524;SDS011;8375;33.594;-117.718;2022-09-29T03:26:43;17.73;;;7.22;;
16524;SDS011;8375;33.594;-117.718;2022-09-29T03:29:12;18.70;;;8.05;;
16524;SDS011;8375;33.594;-117.718;2022-09-29T03:31:41;20.85;;;7.35;;
16524;SDS011;8375;33.594;-117.718;2022-09-29T03:34:09;17.40;;;7.82;;
16524;SDS011;8375;33.594;-117.718;2022-09-29T03:36:45;15.82;;;7.30;;
16524;SDS011;8375;33.594;-117.718;2022-09-29T03:39:14;22.60;;;8.55;;
16524;SDS011;8375;33.594;-117.718;2022-09-29T03:41:43;17.65;;;7.55;;
16524;SDS011;8375;33.594;-117.718;2022-09-29T03:44:12;16.08;;;7.65;;
16524;SDS011;8375;33.594;-117.718;2022-09-29T03:46:41;20.52;;;8.05;;
16524;SDS011;8375;33.594;-117.718;2022-09-29T03:49:10;18.30;;;8.30;;
16524;SDS011;8375;33.594;-117.718;2022-09-29T03:51:40;14.43;;;7.40;;
16524;SDS011;8375;33.594;-117.718;2022-09-29T03:54:10;24.00;;;8.48;;
16524;SDS011;8375;33.594;-117.718;2022-09-29T03:56:39;20.87;;;9.07;;
16524;SDS011;8375;33.594;-117.718;2022-09-29T03:59:08;21.88;;;8.38;;
16524;SDS011;8375;33.594;-117.718;2022-09-29T04:01:39;20.63;;;8.45;;
16524;SDS011;8375;33.594;-117.718;2022-09-29T04:04:08;22.80;;;10.30;;
16524;SDS011;8375;33.594;-117.718;2022-09-29T04:06:37;21.13;;;11.30;;
16524;SDS011;8375;33.594;-117.718;2022-09-29T04:09:06;21.67;;;11.13;;
16524;SDS011;8375;33.594;-117.718;2022-09-29T04:11:37;24.87;;;11.67;;
16524;SDS011;8375;33.594;-117.718;2022-09-29T04:14:06;25.43;;;11.50;;
16524;SDS011;8375;33.594;-117.718;2022-09-29T04:16:36;23.07;;;11.37;;
16524;SDS011;8375;33.594;-117.718;2022-09-29T04:19:05;22.37;;;12.60;;
16524;SDS011;8375;33.594;-117.718;2022-09-29T04:21:34;25.63;;;11.80;;
16524;SDS011;8375;33.594;-117.718;2022-09-29T04:24:03;21.53;;;11.60;;
16524;SDS011;8375;33.594;-117.718;2022-09-29T04:26:32;21.80;;;11.93;;
16524;SDS011;8375;33.594;-117.718;2022-09-29T04:29:03;26.98;;;11.80;;
16524;SDS011;8375;33.594;-117.718;2022-09-29T04:31:33;22.10;;;12.07;;
16524;SDS011;8375;33.594;-117.718;2022-09-29T04:34:01;21.73;;;11.40;;
16524;SDS011;8375;33.594;-117.718;2022-09-29T04:36:30;25.97;;;11.47;;
16524;SDS011;8375;33.594;-117.718;2022-09-29T04:38:59;25.80;;;11.67;;
16524;SDS011;8375;33.594;-117.718;2022-09-29T04:41:28;30.97;;;12.10;;
16524;SDS011;8375;33.594;-117.718;2022-09-29T04:43:59;26.33;;;11.50;;
16524;SDS011;8375;33.594;-117.718;2022-09-29T04:46:32;24.37;;;11.30;;
16524;SDS011;8375;33.594;-117.718;2022-09-29T04:49:01;25.13;;;11.63;;
16524;SDS011;8375;33.594;-117.718;2022-09-29T04:51:30;24.90;;;11.60;;
16524;SDS011;8375;33.594;-117.718;2022-09-29T04:53:59;28.57;;;11.77;;
16524;SDS011;8375;33.594;-117.718;2022-09-29T04:56:28;25.63;;;11.50;;
16524;SDS011;8375;33.594;-117.718;2022-09-29T04:58:57;25.97;;;10.87;;
16524;SDS011;8375;33.594;-117.718;2022-09-29T05:01:26;27.97;;;11.53;;
16524;SDS011;8375;33.594;-117.718;2022-09-29T05:03:56;28.90;;;11.57;;
16524;SDS011;8375;33.594;-117.718;2022-09-29T05:06:25;28.60;;;11.17;;
16524;SDS011;8375;33.594;-117.718;2022-09-29T05:08:54;28.23;;;11.10;;
16524;SDS011;8375;33.594;-117.718;2022-09-29T05:11:23;28.10;;;10.47;;
16524;SDS011;8375;33.594;-117.718;2022-09-29T05:13:51;23.33;;;9.13;;
16524;SDS011;8375;33.594;-117.718;2022-09-29T05:16:20;24.92;;;10.77;;
16524;SDS011;8375;33.594;-117.718;2022-09-29T05:18:49;24.27;;;9.43;;
16524;SDS011;8375;33.594;-117.718;2022-09-29T05:21:19;25.93;;;10.07;;
16524;SDS011;8375;33.594;-117.718;2022-09-29T05:23:48;28.10;;;9.37;;
16524;SDS011;8375;33.594;-117.718;2022-09-29T05:26:17;25.10;;;9.23;;
16524;SDS011;8375;33.594;-117.718;2022-09-29T05:28:46;24.50;;;9.10;;
16524;SDS011;8375;33.594;-117.718;2022-09-29T05:31:15;20.80;;;7.93;;
16524;SDS011;8375;33.594;-117.718;2022-09-29T05:33:44;26.65;;;8.88;;
16524;SDS011;8375;33.594;-117.718;2022-09-29T05:36:13;20.55;;;8.48;;
16524;SDS011;8375;33.594;-117.718;2022-09-29T05:38:43;18.13;;;8.03;;
16524;SDS011;8375;33.594;-117.718;2022-09-29T05:41:12;22.60;;;8.30;;
16524;SDS011;8375;33.594;-117.718;2022-09-29T05:43:41;27.67;;;9.40;;
16524;SDS011;8375;33.594;-117.718;2022-09-29T05:46:10;29.27;;;9.90;;
16524;SDS011;8375;33.594;-117.718;2022-09-29T05:48:40;28.23;;;10.00;;
16524;SDS011;8375;33.594;-117.718;2022-09-29T05:51:09;24.85;;;8.85;;
16524;SDS011;8375;33.594;-117.718;2022-09-29T05:53:40;23.77;;;8.93;;
16524;SDS011;8375;33.594;-117.718;2022-09-29T05:56:12;24.13;;;9.13;;
16524;SDS011;8375;33.594;-117.718;2022-09-29T05:58:42;26.98;;;8.85;;
16524;SDS011;8375;33.594;-117.718;2022-09-29T06:01:12;28.20;;;9.07;;
16524;SDS011;8375;33.594;-117.718;2022-09-29T06:03:42;27.33;;;8.60;;
16524;SDS011;8375;33.594;-117.718;2022-09-29T06:06:12;26.00;;;8.83;;
16524;SDS011;8375;33.594;-117.718;2022-09-29T06:08:42;31.80;;;9.70;;
16524;SDS011;8375;33.594;-117.718;2022-09-29T06:11:13;25.05;;;8.45;;
16524;SDS011;8375;33.594;-117.718;2022-09-29T06:13:43;27.53;;;8.50;;
16524;SDS011;8375;33.594;-117.718;2022-09-29T06:16:14;24.13;;;8.90;;
16524;SDS011;8375;33.594;-117.718;2022-09-29T06:18:44;22.27;;;9.00;;
16524;SDS011;8375;33.594;-117.718;2022-09-29T06:21:14;23.33;;;9.03;;
16524;SDS011;8375;33.594;-117.718;2022-09-29T06:23:44;27.98;;;10.13;;
16524;SDS011;8375;33.594;-117.718;2022-09-29T06:26:15;27.90;;;9.57;;
16524;SDS011;8375;33.594;-117.718;2022-09-29T06:28:45;29.05;;;9.38;;
16524;SDS011;8375;33.594;-117.718;2022-09-29T06:31:15;23.63;;;9.73;;
16524;SDS011;8375;33.594;-117.718;2022-09-29T06:33:44;23.00;;;8.87;;
16524;SDS011;8375;33.594;-117.718;2022-09-29T06:36:14;27.03;;;9.30;;
16524;SDS011;8375;33.594;-117.718;2022-09-29T06:39:02;25.20;;;9.00;;
16524;SDS011;8375;33.594;-117.718;2022-09-29T06:41:33;27.63;;;8.20;;
16524;SDS011;8375;33.594;-117.718;2022-09-29T06:44:02;28.27;;;9.67;;
16524;SDS011;8375;33.594;-117.718;2022-09-29T06:46:31;27.87;;;10.03;;
16524;SDS011;8375;33.594;-117.718;2022-09-29T06:49:00;23.27;;;9.73;;
16524;SDS011;8375;33.594;-117.718;2022-09-29T06:51:29;25.37;;;9.67;;
16524;SDS011;8375;33.594;-117.718;2022-09-29T06:53:57;21.23;;;9.57;;
16524;SDS011;8375;33.594;-117.718;2022-09-29T06:56:26;25.70;;;9.40;;
16524;SDS011;8375;33.594;-117.718;2022-09-29T06:58:57;27.63;;;8.77;;
16524;SDS011;8375;33.594;-117.718;2022-09-29T07:01:26;22.17;;;8.50;;
16524;SDS011;8375;33.594;-117.718;2022-09-29T07:03:54;23.97;;;9.40;;
16524;SDS011;8375;33.594;-117.718;2022-09-29T07:06:25;23.73;;;9.03;;
16524;SDS011;8375;33.594;-117.718;2022-09-29T07:08:54;21.33;;;8.53;;
16524;SDS011;8375;33.594;-117.718;2022-09-29T07:11:23;29.00;;;9.07;;
16524;SDS011;8375;33.594;-117.718;2022-09-29T07:13:52;29.80;;;10.20;;
16524;SDS011;8375;33.594;-117.718;2022-09-29T07:16:23;24.17;;;9.33;;
16524;SDS011;8375;33.594;-117.718;2022-09-29T07:18:52;26.13;;;9.73;;
16524;SDS011;8375;33.594;-117.718;2022-09-29T07:21:20;23.93;;;9.23;;
16524;SDS011;8375;33.594;-117.718;2022-09-29T07:23:49;25.53;;;9.63;;
16524;SDS011;8375;33.594;-117.718;2022-09-29T07:26:18;28.40;;;9.57;;
16524;SDS011;8375;33.594;-117.718;2022-09-29T07:28:47;24.53;;;8.03;;
16524;SDS011;8375;33.594;-117.718;2022-09-29T07:31:16;25.40;;;9.07;;
16524;SDS011;8375;33.594;-117.718;2022-09-29T07:33:48;26.00;;;9.07;;
16524;SDS011;8375;33.594;-117.718;2022-09-29T07:36:18;25.67;;;9.43;;
16524;SDS011;8375;33.594;-117.718;2022-09-29T07:38:48;26.43;;;9.27;;
16524;SDS011;8375;33.594;-117.718;2022-09-29T07:41:17;25.83;;;9.50;;
16524;SDS011;8375;33.594;-117.718;2022-09-29T07:43:47;32.63;;;10.47;;
16524;SDS011;8375;33.594;-117.718;2022-09-29T07:46:16;24.90;;;9.77;;
16524;SDS011;8375;33.594;-117.718;2022-09-29T07:48:44;28.73;;;9.70;;
16524;SDS011;8375;33.594;-117.718;2022-09-29T07:51:15;32.57;;;11.10;;
16524;SDS011;8375;33.594;-117.718;2022-09-29T07:53:45;31.47;;;10.57;;
16524;SDS011;8375;33.594;-117.718;2022-09-29T07:56:15;31.37;;;10.73;;
16524;SDS011;8375;33.594;-117.718;2022-09-29T07:58:45;30.73;;;10.97;;
16524;SDS011;8375;33.594;-117.718;2022-09-29T08:01:16;36.27;;;10.33;;
16524;SDS011;8375;33.594;-117.718;2022-09-29T08:03:48;34.30;;;10.43;;
16524;SDS011;8375;33.594;-117.718;2022-09-29T08:06:20;30.73;;;10.77;;
16524;SDS011;8375;33.594;-117.718;2022-09-29T08:08:50;24.70;;;11.33;;
16524;SDS011;8375;33.594;-117.718;2022-09-29T08:11:19;25.37;;;10.13;;
16524;SDS011;8375;33.594;-117.718;2022-09-29T08:13:49;26.17;;;9.87;;
16524;SDS011;8375;33.594;-117.718;2022-09-29T08:16:19;29.87;;;11.50;;
16524;SDS011;8375;33.594;-117.718;2022-09-29T08:18:48;30.57;;;11.20;;
16524;SDS011;8375;33.594;-117.718;2022-09-29T08:21:17;26.47;;;10.53;;
16524;SDS011;8375;33.594;-117.718;2022-09-29T08:23:47;28.30;;;9.80;;
16524;SDS011;8375;33.594;-117.718;2022-09-29T08:26:16;23.67;;;10.17;;
16524;SDS011;8375;33.594;-117.718;2022-09-29T08:28:47;27.13;;;11.10;;
16524;SDS011;8375;33.594;-117.718;2022-09-29T08:31:16;23.67;;;10.23;;
16524;SDS011;8375;33.594;-117.718;2022-09-29T08:33:47;25.50;;;9.83;;
16524;SDS011;8375;33.594;-117.718;2022-09-29T08:36:16;26.07;;;10.17;;
16524;SDS011;8375;33.594;-117.718;2022-09-29T08:38:48;27.60;;;10.03;;
16524;SDS011;8375;33.594;-117.718;2022-09-29T08:41:26;28.80;;;10.03;;
16524;SDS011;8375;33.594;-117.718;2022-09-29T08:44:00;27.87;;;10.27;;
16524;SDS011;8375;33.594;-117.718;2022-09-29T08:46:36;22.60;;;10.10;;
16524;SDS011;8375;33.594;-117.718;2022-09-29T08:49:09;21.77;;;10.70;;
16524;SDS011;8375;33.594;-117.718;2022-09-29T08:51:49;30.33;;;11.73;;
16524;SDS011;8375;33.594;-117.718;2022-09-29T08:54:23;30.07;;;11.23;;
16524;SDS011;8375;33.594;-117.718;2022-09-29T08:56:56;32.17;;;11.53;;
16524;SDS011;8375;33.594;-117.718;2022-09-29T08:59:26;28.60;;;11.10;;
16524;SDS011;8375;33.594;-117.718;2022-09-29T09:02:13;28.13;;;11.00;;
16524;SDS011;8375;33.594;-117.718;2022-09-29T09:05:00;27.33;;;10.73;;
16524;SDS011;8375;33.594;-117.718;2022-09-29T09:07:54;30.47;;;10.10;;
16524;SDS011;8375;33.594;-117.718;2022-09-29T09:10:34;28.57;;;10.70;;
16524;SDS011;8375;33.594;-117.718;2022-09-29T09:13:15;26.40;;;9.57;;
16524;SDS011;8375;33.594;-117.718;2022-09-29T09:16:00;27.40;;;10.37;;
16524;SDS011;8375;33.594;-117.718;2022-09-29T09:18:51;24.53;;;9.90;;
16524;SDS011;8375;33.594;-117.718;2022-09-29T09:21:31;28.30;;;11.07;;
16524;SDS011;8375;33.594;-117.718;2022-09-29T09:24:08;29.00;;;11.83;;
16524;SDS011;8375;33.594;-117.718;2022-09-29T09:26:45;27.20;;;10.60;;
16524;SDS011;8375;33.594;-117.718;2022-09-29T09:29:17;26.90;;;11.07;;
16524;SDS011;8375;33.594;-117.718;2022-09-29T09:31:53;32.17;;;11.30;;
16524;SDS011;8375;33.594;-117.718;2022-09-29T09:34:26;26.90;;;9.93;;
16524;SDS011;8375;33.594;-117.718;2022-09-29T09:37:02;25.57;;;9.80;;
16524;SDS011;8375;33.594;-117.718;2022-09-29T09:39:36;26.37;;;10.13;;
16524;SDS011;8375;33.594;-117.718;2022-09-29T09:42:14;26.67;;;10.63;;
16524;SDS011;8375;33.594;-117.718;2022-09-29T09:44:47;24.47;;;10.20;;
16524;SDS011;8375;33.594;-117.718;2022-09-29T09:47:22;25.60;;;10.50;;
16524;SDS011;8375;33.594;-117.718;2022-09-29T09:49:54;32.73;;;11.10;;
16524;SDS011;8375;33.594;-117.718;2022-09-29T09:52:28;26.93;;;11.13;;
16524;SDS011;8375;33.594;-117.718;2022-09-29T09:55:04;30.23;;;10.90;;
16524;SDS011;8375;33.594;-117.718;2022-09-29T09:57:50;32.27;;;10.83;;
16524;SDS011;8375;33.594;-117.718;2022-09-29T10:00:31;26.40;;;11.20;;
16524;SDS011;8375;33.594;-117.718;2022-09-29T10:03:06;27.00;;;10.73;;
16524;SDS011;8375;33.594;-117.718;2022-09-29T10:05:38;32.67;;;12.33;;
16524;SDS011;8375;33.594;-117.718;2022-09-29T10:08:10;29.47;;;11.67;;
16524;SDS011;8375;33.594;-117.718;2022-09-29T10:10:43;35.90;;;12.17;;
16524;SDS011;8375;33.594;-117.718;2022-09-29T10:13:13;28.87;;;11.90;;
16524;SDS011;8375;33.594;-117.718;2022-09-29T10:15:44;29.23;;;11.90;;
16524;SDS011;8375;33.594;-117.718;2022-09-29T10:18:19;30.80;;;11.67;;
16524;SDS011;8375;33.594;-117.718;2022-09-29T10:20:53;35.27;;;11.13;;
16524;SDS011;8375;33.594;-117.718;2022-09-29T10:23:24;26.77;;;11.00;;
16524;SDS011;8375;33.594;-117.718;2022-09-29T10:25:57;31.87;;;11.60;;
16524;SDS011;8375;33.594;-117.718;2022-09-29T10:28:36;33.00;;;12.10;;
16524;SDS011;8375;33.594;-117.718;2022-09-29T10:31:20;37.53;;;12.40;;
16524;SDS011;8375;33.594;-117.718;2022-09-29T10:33:53;25.47;;;11.57;;
16524;SDS011;8375;33.594;-117.718;2022-09-29T10:36:24;24.03;;;12.43;;
16524;SDS011;8375;33.594;-117.718;2022-09-29T10:38:55;33.07;;;12.57;;
16524;SDS011;8375;33.594;-117.718;2022-09-29T10:41:24;35.33;;;13.10;;
16524;SDS011;8375;33.594;-117.718;2022-09-29T10:43:55;30.83;;;11.87;;
16524;SDS011;8375;33.594;-117.718;2022-09-29T10:46:47;29.43;;;12.27;;
16524;SDS011;8375;33.594;-117.718;2022-09-29T10:49:18;33.90;;;12.90;;
16524;SDS011;8375;33.594;-117.718;2022-09-29T10:51:51;46.33;;;14.87;;
16524;SDS011;8375;33.594;-117.718;2022-09-29T10:54:23;49.83;;;16.70;;
16524;SDS011;8375;33.594;-117.718;2022-09-29T10:56:54;30.80;;;14.23;;
16524;SDS011;8375;33.594;-117.718;2022-09-29T10:59:25;33.60;;;14.00;;
16524;SDS011;8375;33.594;-117.718;2022-09-29T11:01:55;33.50;;;14.00;;
16524;SDS011;8375;33.594;-117.718;2022-09-29T11:04:28;36.40;;;14.63;;
16524;SDS011;8375;33.594;-117.718;2022-09-29T11:07:04;31.00;;;12.10;;
16524;SDS011;8375;33.594;-117.718;2022-09-29T11:09:39;19.87;;;12.43;;
16524;SDS011;8375;33.594;-117.718;2022-09-29T11:12:27;24.83;;;12.97;;
16524;SDS011;8375;33.594;-117.718;2022-09-29T11:15:00;33.67;;;14.07;;
16524;SDS011;8375;33.594;-117.718;2022-09-29T11:17:29;30.03;;;13.57;;
16524;SDS011;8375;33.594;-117.718;2022-09-29T11:20:04;25.60;;;12.90;;
16524;SDS011;8375;33.594;-117.718;2022-09-29T11:31:37;29.97;;;12.60;;
16524;SDS011;8375;33.594;-117.718;2022-09-29T11:34:19;34.43;;;13.13;;
16524;SDS011;8375;33.594;-117.718;2022-09-29T11:37:12;32.97;;;15.07;;
16524;SDS011;8375;33.594;-117.718;2022-09-29T11:39:54;35.77;;;15.83;;
16524;SDS011;8375;33.594;-117.718;2022-09-29T11:42:32;17.93;;;12.17;;
16524;SDS011;8375;33.594;-117.718;2022-09-29T11:45:11;13.47;;;10.90;;
16524;SDS011;8375;33.594;-117.718;2022-09-29T11:47:57;16.20;;;11.10;;
16524;SDS011;8375;33.594;-117.718;2022-09-29T11:50:47;16.70;;;11.10;;
16524;SDS011;8375;33.594;-117.718;2022-09-29T11:53:31;18.33;;;12.17;;
16524;SDS011;8375;33.594;-117.718;2022-09-29T11:56:17;19.23;;;11.67;;
16524;SDS011;8375;33.594;-117.718;2022-09-29T11:59:00;22.60;;;12.10;;
16524;SDS011;8375;33.594;-117.718;2022-09-29T12:01:44;19.10;;;12.00;;
16524;SDS011;8375;33.594;-117.718;2022-09-29T12:04:31;17.40;;;12.03;;
16524;SDS011;8375;33.594;-117.718;2022-09-29T12:07:16;24.03;;;13.40;;
16524;SDS011;8375;33.594;-117.718;2022-09-29T12:09:59;20.60;;;12.20;;
16524;SDS011;8375;33.594;-117.718;2022-09-29T12:12:44;19.27;;;12.33;;
16524;SDS011;8375;33.594;-117.718;2022-09-29T12:15:25;18.50;;;12.47;;
16524;SDS011;8375;33.594;-117.718;2022-09-29T12:18:06;20.73;;;12.70;;
16524;SDS011;8375;33.594;-117.718;2022-09-29T12:20:43;17.97;;;11.70;;
16524;SDS011;8375;33.594;-117.718;2022-09-29T12:23:15;22.50;;;13.20;;
16524;SDS011;8375;33.594;-117.718;2022-09-29T12:25:50;27.77;;;14.83;;
16524;SDS011;8375;33.594;-117.718;2022-09-29T12:28:24;37.70;;;18.50;;
16524;SDS011;8375;33.594;-117.718;2022-09-29T12:31:00;42.60;;;18.20;;
16524;SDS011;8375;33.594;-117.718;2022-09-29T12:33:36;26.70;;;15.07;;
16524;SDS011;8375;33.594;-117.718;2022-09-29T12:36:12;24.30;;;15.43;;
16524;SDS011;8375;33.594;-117.718;2022-09-29T12:39:09;32.30;;;18.10;;
16524;SDS011;8375;33.594;-117.718;2022-09-29T12:41:45;44.00;;;22.90;;
16524;SDS011;8375;33.594;-117.718;2022-09-29T12:44:22;44.33;;;22.60;;
16524;SDS011;8375;33.594;-117.718;2022-09-29T12:46:57;39.67;;;24.00;;
16524;SDS011;8375;33.594;-117.718;2022-09-29T12:49:32;44.43;;;24.93;;
16524;SDS011;8375;33.594;-117.718;2022-09-29T12:52:11;43.40;;;24.13;;
16524;SDS011;8375;33.594;-117.718;2022-09-29T12:54:47;48.10;;;29.53;;
16524;SDS011;8375;33.594;-117.718;2022-09-29T12:57:22;42.33;;;26.97;;
16524;SDS011;8375;33.594;-117.718;2022-09-29T12:59:55;50.27;;;28.87;;
16524;SDS011;8375;33.594;-117.718;2022-09-29T13:02:33;49.57;;;27.80;;
16524;SDS011;8375;33.594;-117.718;2022-09-29T13:05:27;50.23;;;26.53;;
16524;SDS011;8375;33.594;-117.718;2022-09-29T13:08:28;42.57;;;25.60;;
16524;SDS011;8375;33.594;-117.718;2022-09-29T13:11:08;44.23;;;26.20;;
16524;SDS011;8375;33.594;-117.718;2022-09-29T13:13:55;42.13;;;26.37;;
16524;SDS011;8375;33.594;-117.718;2022-09-29T13:19:43;44.30;;;28.07;;
16524;SDS011;8375;33.594;-117.718;2022-09-29T13:22:50;47.13;;;27.37;;
16524;SDS011;8375;33.594;-117.718;2022-09-29T13:25:39;48.77;;;28.23;;
16524;SDS011;8375;33.594;-117.718;2022-09-29T13:28:24;40.20;;;27.03;;
16524;SDS011;8375;33.594;-117.718;2022-09-29T13:30:57;39.60;;;26.47;;
16524;SDS011;8375;33.594;-117.718;2022-09-29T13:33:30;40.60;;;27.27;;
16524;SDS011;8375;33.594;-117.718;2022-09-29T13:35:59;41.17;;;26.43;;
16524;SDS011;8375;33.594;-117.718;2022-09-29T13:38:29;41.90;;;25.63;;
16524;SDS011;8375;33.594;-117.718;2022-09-29T13:41:15;45.07;;;26.47;;
16524;SDS011;8375;33.594;-117.718;2022-09-29T13:44:18;46.70;;;28.13;;
16524;SDS011;8375;33.594;-117.718;2022-09-29T13:46:50;41.87;;;27.20;;
16524;SDS011;8375;33.594;-117.718;2022-09-29T13:49:27;44.40;;;26.70;;
16524;SDS011;8375;33.594;-117.718;2022-09-29T13:51:57;40.47;;;27.90;;
16524;SDS011;8375;33.594;-117.718;2022-09-29T13:54:29;46.40;;;27.60;;
16524;SDS011;8375;33.594;-117.718;2022-09-29T13:57:17;47.90;;;28.60;;
16524;SDS011;8375;33.594;-117.718;2022-09-29T14:03:04;49.23;;;29.63;;
16524;SDS011;8375;33.594;-117.718;2022-09-29T14:05:53;48.87;;;30.17;;
16524;SDS011;8375;33.594;-117.718;2022-09-29T14:08:33;46.50;;;28.53;;
16524;SDS011;8375;33.594;-117.718;2022-09-29T14:11:11;44.93;;;28.30;;
16524;SDS011;8375;33.594;-117.718;2022-09-29T14:13:48;45.57;;;28.00;;
16524;SDS011;8375;33.594;-117.718;2022-09-29T14:16:26;43.70;;;28.57;;
16524;SDS011;8375;33.594;-117.718;2022-09-29T14:19:03;48.13;;;29.63;;
16524;SDS011;8375;33.594;-117.718;2022-09-29T14:21:45;42.63;;;28.80;;
16524;SDS011;8375;33.594;-117.718;2022-09-29T14:27:18;44.03;;;29.83;;
16524;SDS011;8375;33.594;-117.718;2022-09-29T14:30:00;36.53;;;26.00;;
16524;SDS011;8375;33.594;-117.718;2022-09-29T14:32:42;44.00;;;27.20;;
16524;SDS011;8375;33.594;-117.718;2022-09-29T14:35:20;29.77;;;18.87;;
16524;SDS011;8375;33.594;-117.718;2022-09-29T14:37:58;33.47;;;24.00;;
16524;SDS011;8375;33.594;-117.718;2022-09-29T14:40:31;36.67;;;25.27;;
16524;SDS011;8375;33.594;-117.718;2022-09-29T14:43:11;44.73;;;29.30;;
16524;SDS011;8375;33.594;-117.718;2022-09-29T14:46:03;44.67;;;29.53;;
16524;SDS011;8375;33.594;-117.718;2022-09-29T14:49:18;42.07;;;28.23;;
16524;SDS011;8375;33.594;-117.718;2022-09-29T14:52:32;44.40;;;29.77;;
16524;SDS011;8375;33.594;-117.718;2022-09-29T14:55:12;47.50;;;29.90;;
16524;SDS011;8375;33.594;-117.718;2022-09-29T14:57:53;48.47;;;31.23;;
16524;SDS011;8375;33.594;-117.718;2022-09-29T15:00:35;47.50;;;30.27;;